Time;durP1;ratioP1;P1;durP2;ratioP2;P2;SDS_P1;SDS_P2;PMS_P1;PMS_P2;Temp;Humidity;BMP_temperature;BMP_pressure;BME280_temperature;BME280_humidity;BME280_pressure;Samples;Min_cycle;Max_cycle;Signal;HPM_P1;HPM_P2
2023/01/13 00:01:20;;;;;;;4.90;3.03;;;9.30;99.90;;;;;;4825107;29;20492;-75
2023/01/13 00:03:46;;;;;;;11.50;2.70;;;9.30;99.90;;;;;;4824995;29;20061;-75
2023/01/13 00:06:15;;;;;;;6.20;2.58;;;9.40;99.90;;;;;;4856505;29;20044;-75
2023/01/13 00:08:41;;;;;;;3.05;2.65;;;9.30;99.90;;;;;;4840181;29;20040;-76
2023/01/13 00:11:08;;;;;;;14.77;2.28;;;9.30;99.90;;;;;;4856318;29;20116;-75
2023/01/13 00:13:35;;;;;;;3.00;2.08;;;9.30;99.90;;;;;;4856284;29;20034;-75
2023/01/13 00:16:05;;;;;;;9.57;1.65;;;9.40;99.90;;;;;;4850227;29;20029;-76
2023/01/13 00:18:31;;;;;;;10.20;1.88;;;9.30;99.90;;;;;;4821813;29;20062;-76
2023/01/13 00:21:03;;;;;;;5.38;2.03;;;9.30;99.90;;;;;;4821782;29;20049;-75
2023/01/13 00:23:30;;;;;;;6.53;2.45;;;9.30;99.90;;;;;;4857087;29;20038;-75
2023/01/13 00:25:57;;;;;;;6.07;1.98;;;9.30;99.90;;;;;;4873747;29;20025;-75
2023/01/13 00:28:24;;;;;;;3.58;2.08;;;9.30;99.90;;;;;;4874701;29;20034;-76
2023/01/13 00:30:50;;;;;;;8.90;2.78;;;9.30;99.90;;;;;;4850343;29;20492;-76
2023/01/13 00:33:16;;;;;;;8.98;4.32;;;9.30;99.90;;;;;;4839720;29;20037;-75
2023/01/13 00:35:42;;;;;;;12.75;3.58;;;9.20;99.90;;;;;;4835255;29;20054;-75
2023/01/13 00:38:08;;;;;;;8.20;1.45;;;9.10;99.90;;;;;;4809593;29;20570;-75
2023/01/13 00:40:34;;;;;;;4.63;1.60;;;9.00;99.90;;;;;;4824709;29;20480;-75
2023/01/13 00:45:44;;;;;;;12.10;3.30;;;8.90;99.90;;;;;;4845497;29;20046;-75
2023/01/13 00:48:10;;;;;;;3.10;1.92;;;8.80;99.90;;;;;;4855906;29;20125;-75
2023/01/13 00:50:36;;;;;;;8.90;2.00;;;8.80;99.90;;;;;;4855657;29;20038;-75
2023/01/13 00:53:02;;;;;;;14.93;4.25;;;8.70;99.90;;;;;;4839457;29;20042;-75
2023/01/13 00:55:31;;;;;;;8.52;3.40;;;8.70;99.90;;;;;;4855918;29;20038;-75
2023/01/13 00:58:02;;;;;;;17.63;4.93;;;8.60;99.90;;;;;;4855549;29;20090;-74
2023/01/13 01:00:31;;;;;;;10.43;4.05;;;8.60;99.90;;;;;;4847945;29;20130;-75
2023/01/13 01:02:57;;;;;;;6.93;3.20;;;8.60;99.90;;;;;;4837669;29;20053;-75
2023/01/13 01:05:24;;;;;;;6.30;2.47;;;8.60;99.90;;;;;;4821038;29;20038;-75
2023/01/13 01:07:49;;;;;;;3.85;2.70;;;8.60;99.90;;;;;;4837293;29;20066;-75
2023/01/13 01:10:16;;;;;;;8.10;2.45;;;8.60;99.90;;;;;;4837172;29;20041;-75
2023/01/13 01:12:42;;;;;;;3.78;2.30;;;8.50;99.90;;;;;;4837298;29;20447;-75
2023/01/13 01:15:09;;;;;;;11.18;4.82;;;8.50;99.90;;;;;;4844562;29;20030;-75
2023/01/13 01:17:36;;;;;;;5.18;1.75;;;8.50;99.90;;;;;;4855629;29;20026;-75
2023/01/13 01:20:03;;;;;;;9.90;3.35;;;8.40;99.90;;;;;;4855204;29;20113;-75
2023/01/13 01:22:29;;;;;;;18.75;3.63;;;8.50;99.90;;;;;;4855237;29;20034;-75
2023/01/13 01:24:55;;;;;;;14.55;3.33;;;8.50;99.90;;;;;;4856096;29;20033;-75
2023/01/13 01:27:21;;;;;;;8.30;2.22;;;8.40;99.90;;;;;;4856976;29;20038;-75
2023/01/13 01:29:47;;;;;;;13.80;4.30;;;8.50;99.90;;;;;;4831416;29;20047;-75
2023/01/13 01:32:12;;;;;;;5.03;3.05;;;8.40;99.90;;;;;;4837067;29;20039;-75
2023/01/13 01:34:38;;;;;;;7.32;3.75;;;8.50;99.90;;;;;;4836882;29;20031;-75
2023/01/13 01:37:04;;;;;;;20.02;4.05;;;8.40;99.90;;;;;;4836619;29;20545;-75
2023/01/13 01:39:30;;;;;;;9.90;3.30;;;8.40;99.90;;;;;;4837095;29;20045;-75
2023/01/13 01:44:40;;;;;;;6.25;3.00;;;8.40;99.90;;;;;;4844542;29;20025;-75
2023/01/13 01:47:12;;;;;;;25.83;5.70;;;8.40;99.90;;;;;;4854629;29;20535;-75
2023/01/13 01:49:40;;;;;;;5.28;3.60;;;8.40;99.90;;;;;;4855163;29;20101;-75
2023/01/13 01:52:12;;;;;;;8.38;3.80;;;8.40;99.90;;;;;;4838763;29;20030;-75
2023/01/13 01:54:50;;;;;;;13.50;3.83;;;8.30;99.90;;;;;;4837079;29;20034;-75
2023/01/13 01:57:34;;;;;;;9.63;3.20;;;8.30;99.90;;;;;;4836920;29;20041;-75
2023/01/13 02:00:02;;;;;;;8.68;5.35;;;8.20;99.90;;;;;;4836632;29;20098;-75
2023/01/13 02:02:38;;;;;;;13.27;3.83;;;8.20;99.90;;;;;;4837489;29;20030;-75
2023/01/13 02:05:05;;;;;;;12.98;4.20;;;8.10;99.90;;;;;;4820265;29;20503;-75
2023/01/13 02:07:33;;;;;;;23.15;5.78;;;8.10;99.90;;;;;;4820358;29;20034;-75
2023/01/13 02:10:03;;;;;;;23.20;6.15;;;8.10;99.90;;;;;;4836356;29;20019;-75
2023/01/13 02:12:30;;;;;;;19.13;2.92;;;8.00;99.90;;;;;;4836627;29;20113;-75
2023/01/13 02:15:02;;;;;;;20.80;3.80;;;7.90;99.90;;;;;;4836477;29;20035;-75
2023/01/13 02:17:37;;;;;;;13.07;3.53;;;8.00;99.90;;;;;;4836465;29;20046;-75
2023/01/13 02:20:37;;;;;;;15.88;5.18;;;7.90;99.90;;;;;;4836345;29;20031;-75
2023/01/13 02:26:25;;;;;;;11.15;4.80;;;7.90;99.90;;;;;;4873113;29;19913;-75
2023/01/13 02:31:53;;;;;;;8.70;4.32;;;7.80;99.90;;;;;;4836369;29;20050;-75
2023/01/13 02:34:38;;;;;;;7.68;3.97;;;7.80;99.90;;;;;;4804655;29;20034;-75
2023/01/13 02:37:13;;;;;;;8.05;3.53;;;7.80;99.90;;;;;;4836276;29;20141;-75
2023/01/13 02:39:54;;;;;;;18.33;4.57;;;7.80;99.90;;;;;;4836228;29;20041;-75
2023/01/13 02:45:32;;;;;;;12.93;3.22;;;7.80;99.90;;;;;;4854354;29;20041;-75
2023/01/13 02:48:01;;;;;;;10.02;3.72;;;7.70;99.90;;;;;;4822453;29;20045;-75
2023/01/13 02:50:55;;;;;;;8.35;3.13;;;7.70;99.90;;;;;;4856192;29;20034;-75
2023/01/13 02:53:49;;;;;;;11.27;3.50;;;7.60;99.90;;;;;;4841264;29;20050;-74
2023/01/13 02:56:17;;;;;;;14.82;3.67;;;7.70;99.90;;;;;;4841243;29;20455;-75
2023/01/13 02:58:45;;;;;;;13.35;6.38;;;7.60;99.90;;;;;;4848703;29;20086;-74
2023/01/13 03:01:11;;;;;;;10.27;3.55;;;7.70;99.90;;;;;;4823152;29;20046;-75
2023/01/13 03:03:37;;;;;;;12.55;4.40;;;7.70;99.90;;;;;;4839155;29;20030;-75
2023/01/13 03:06:14;;;;;;;9.10;3.03;;;7.70;99.90;;;;;;4823007;29;20068;-75
2023/01/13 03:08:53;;;;;;;18.60;4.32;;;7.70;99.90;;;;;;4822888;29;20062;-75
2023/01/13 03:11:21;;;;;;;9.43;3.58;;;7.80;99.90;;;;;;4823090;29;20117;-75
2023/01/13 03:14:02;;;;;;;6.35;2.72;;;7.80;99.90;;;;;;4849814;29;20034;-75
2023/01/13 03:16:53;;;;;;;3.28;2.60;;;7.80;99.90;;;;;;4857398;29;20030;-75
2023/01/13 03:19:48;;;;;;;5.10;3.25;;;7.80;99.90;;;;;;4857639;29;20041;-74
2023/01/13 03:22:42;;;;;;;21.52;3.80;;;7.90;99.90;;;;;;4857513;29;20034;-75
2023/01/13 03:25:14;;;;;;;7.50;2.78;;;7.90;99.90;;;;;;4863852;29;20065;-75
2023/01/13 03:28:10;;;;;;;5.45;2.00;;;8.00;99.90;;;;;;4838467;29;20054;-75
2023/01/13 03:30:43;;;;;;;11.65;3.55;;;8.10;99.90;;;;;;4824786;29;20063;-75
2023/01/13 03:33:15;;;;;;;12.85;2.45;;;8.10;99.90;;;;;;4857458;29;20116;-75
2023/01/13 03:35:46;;;;;;;3.75;2.15;;;8.20;99.90;;;;;;4857007;29;20057;-75
2023/01/13 03:38:32;;;;;;;6.35;3.00;;;8.20;99.90;;;;;;4857053;29;20030;-75
2023/01/13 03:41:09;;;;;;;8.77;3.28;;;8.30;99.90;;;;;;4839961;29;20061;-75
2023/01/13 03:44:21;;;;;;;10.05;5.20;;;8.30;99.90;;;;;;4875492;29;20044;-75
2023/01/13 03:46:51;;;;;;;7.05;3.08;;;8.30;99.90;;;;;;4839246;29;20049;-75
2023/01/13 03:49:23;;;;;;;8.32;3.88;;;8.30;99.90;;;;;;4858969;29;20061;-75
2023/01/13 03:51:58;;;;;;;11.10;3.17;;;8.30;99.90;;;;;;4858688;29;20041;-75
2023/01/13 03:54:27;;;;;;;15.70;4.05;;;8.30;99.90;;;;;;4875545;29;20040;-75
2023/01/13 03:57:02;;;;;;;5.25;2.90;;;8.30;99.90;;;;;;4847712;29;20030;-75
2023/01/13 03:59:33;;;;;;;9.35;3.28;;;8.30;99.90;;;;;;4856838;29;20034;-75
2023/01/13 04:02:32;;;;;;;17.27;4.05;;;8.20;99.90;;;;;;4839911;29;20045;-75
2023/01/13 04:05:01;;;;;;;8.50;4.63;;;8.30;99.90;;;;;;4856574;29;20169;-75
2023/01/13 04:07:43;;;;;;;10.68;4.00;;;8.20;99.90;;;;;;4840207;29;20041;-75
2023/01/13 04:10:10;;;;;;;9.07;3.60;;;8.20;99.90;;;;;;4840072;29;20041;-75
2023/01/13 04:13:00;;;;;;;7.95;4.60;;;8.20;99.90;;;;;;4822803;29;20129;-75
2023/01/13 04:15:29;;;;;;;14.00;5.95;;;8.20;99.90;;;;;;4838258;29;20035;-75
2023/01/13 04:18:19;;;;;;;10.80;2.97;;;8.20;99.90;;;;;;4838159;29;20022;-75
2023/01/13 04:20:47;;;;;;;15.50;2.90;;;8.20;99.90;;;;;;4821888;29;20026;-75
2023/01/13 04:23:13;;;;;;;6.70;2.83;;;8.20;99.90;;;;;;4821473;29;20283;-75
2023/01/13 04:25:41;;;;;;;13.15;4.40;;;8.20;99.90;;;;;;4859853;29;20033;-75
2023/01/13 04:28:07;;;;;;;5.18;3.15;;;8.10;99.90;;;;;;4856590;29;20038;-74
2023/01/13 04:30:33;;;;;;;7.97;2.55;;;8.10;99.90;;;;;;4856154;29;20030;-75
2023/01/13 04:32:59;;;;;;;20.20;4.63;;;8.10;99.90;;;;;;4856111;29;20062;-75
2023/01/13 04:35:25;;;;;;;10.52;3.92;;;8.10;99.90;;;;;;4839751;29;20129;-75
2023/01/13 04:37:51;;;;;;;6.50;3.03;;;8.00;99.90;;;;;;4839514;29;20034;-75
2023/01/13 04:40:17;;;;;;;9.38;2.20;;;8.00;99.90;;;;;;4835728;29;20054;-75
2023/01/13 04:42:44;;;;;;;5.93;3.90;;;8.00;99.90;;;;;;4837826;29;20038;-75
2023/01/13 04:45:11;;;;;;;23.38;5.65;;;7.90;99.90;;;;;;4837653;29;20041;-75
2023/01/13 04:47:37;;;;;;;15.43;5.68;;;7.70;99.90;;;;;;4837522;29;20480;-75
2023/01/13 04:50:04;;;;;;;8.02;4.45;;;7.70;99.90;;;;;;4837673;29;20061;-75
2023/01/13 04:52:30;;;;;;;13.90;4.28;;;7.60;99.90;;;;;;4806144;29;20064;-75
2023/01/13 04:54:56;;;;;;;12.13;3.95;;;7.50;99.90;;;;;;4837542;29;20034;-75
2023/01/13 04:57:22;;;;;;;11.15;2.25;;;7.40;99.90;;;;;;4845047;29;20029;-75
2023/01/13 04:59:48;;;;;;;7.10;3.38;;;7.40;99.90;;;;;;4839400;29;20041;-75
2023/01/13 05:02:18;;;;;;;4.55;2.08;;;7.40;99.90;;;;;;4855637;29;20026;-75
2023/01/13 05:04:47;;;;;;;9.82;4.20;;;7.30;99.90;;;;;;4855970;29;20502;-75
2023/01/13 05:07:14;;;;;;;8.15;3.03;;;7.40;99.90;;;;;;4839207;29;20110;-75
2023/01/13 05:09:41;;;;;;;8.75;2.47;;;7.40;99.90;;;;;;4855391;29;20034;-75
2023/01/13 05:17:49;;;;;;;12.88;3.30;;;7.40;99.90;;;;;;4837387;29;20093;-75
2023/01/13 05:20:17;;;;;;;5.90;3.03;;;7.40;99.90;;;;;;4837169;29;20039;-75
2023/01/13 05:25:27;;;;;;;3.95;1.45;;;7.40;99.90;;;;;;4856995;29;20484;-75
2023/01/13 05:27:58;;;;;;;6.30;2.10;;;7.50;99.90;;;;;;4854798;29;20042;-74
2023/01/13 05:30:30;;;;;;;6.70;2.40;;;7.50;99.90;;;;;;4838209;29;20113;-75
2023/01/13 05:32:56;;;;;;;8.82;3.75;;;7.40;99.90;;;;;;4855224;29;20062;-75
2023/01/13 05:35:23;;;;;;;5.35;2.42;;;7.60;99.90;;;;;;4843401;29;20043;-75
2023/01/13 05:37:49;;;;;;;16.42;2.17;;;7.50;99.90;;;;;;4838440;29;20041;-75
2023/01/13 05:43:20;;;;;;;6.22;3.85;;;7.50;99.90;;;;;;4762114;30;20111;-75
2023/01/13 05:45:52;;;;;;;3.72;2.33;;;7.40;99.90;;;;;;4836939;29;20045;-75
2023/01/13 05:48:20;;;;;;;8.23;3.10;;;7.40;99.90;;;;;;4854574;29;20153;-75
2023/01/13 05:50:48;;;;;;;4.47;2.08;;;7.40;99.90;;;;;;4854430;29;20045;-75
2023/01/13 05:53:14;;;;;;;4.55;2.17;;;7.40;99.90;;;;;;4838271;29;20057;-76
2023/01/13 05:55:41;;;;;;;3.65;1.65;;;7.40;99.90;;;;;;4838448;29;20521;-75
2023/01/13 05:58:08;;;;;;;2.83;1.50;;;7.40;99.90;;;;;;4838228;29;20027;-75
2023/01/13 06:00:34;;;;;;;12.43;4.72;;;7.50;99.90;;;;;;4823013;29;20045;-75
2023/01/13 06:03:00;;;;;;;3.88;2.00;;;7.50;99.90;;;;;;4835487;29;20030;-75
2023/01/13 06:05:26;;;;;;;7.40;3.95;;;7.40;99.90;;;;;;4838487;29;20030;-75
2023/01/13 06:07:56;;;;;;;10.20;2.92;;;7.40;99.90;;;;;;4858149;29;20026;-75
2023/01/13 06:10:23;;;;;;;11.27;3.22;;;7.40;99.90;;;;;;4832687;29;20094;-75
2023/01/13 06:12:48;;;;;;;15.65;2.60;;;7.40;99.90;;;;;;4838099;29;20037;-75
2023/01/13 06:15:14;;;;;;;7.63;2.65;;;7.40;99.90;;;;;;4854068;29;20030;-75
2023/01/13 06:17:40;;;;;;;7.15;2.67;;;7.40;99.90;;;;;;4854251;29;20026;-75
2023/01/13 06:20:07;;;;;;;7.75;2.45;;;7.50;99.90;;;;;;4811278;29;20033;-75
2023/01/13 06:22:38;;;;;;;6.25;3.28;;;7.50;99.90;;;;;;4831734;29;20045;-75
2023/01/13 06:25:13;;;;;;;10.55;1.95;;;7.50;99.90;;;;;;4858010;29;20041;-75
2023/01/13 06:27:39;;;;;;;11.15;2.17;;;7.50;99.90;;;;;;4842204;29;20038;-75
2023/01/13 06:30:07;;;;;;;3.58;2.80;;;7.50;99.90;;;;;;4857992;29;20026;-75
2023/01/13 06:32:37;;;;;;;17.85;3.25;;;7.50;99.90;;;;;;4825819;29;20037;-75
2023/01/13 06:35:08;;;;;;;8.30;3.17;;;7.50;99.90;;;;;;4841064;29;20088;-75
2023/01/13 06:37:35;;;;;;;5.63;2.53;;;7.50;99.90;;;;;;4858136;29;20045;-75
2023/01/13 06:40:05;;;;;;;16.60;5.13;;;7.50;99.90;;;;;;4850020;29;20022;-75
2023/01/13 06:45:20;;;;;;;10.82;3.70;;;7.50;99.90;;;;;;4841011;29;20034;-75
2023/01/13 06:47:46;;;;;;;11.77;3.60;;;7.40;99.90;;;;;;4823206;29;20105;-75
2023/01/13 06:50:12;;;;;;;17.02;4.95;;;7.40;99.90;;;;;;4850840;29;20037;-75
2023/01/13 06:52:37;;;;;;;10.07;4.15;;;7.40;99.90;;;;;;4825442;29;20070;-75
2023/01/13 06:55:04;;;;;;;5.22;3.33;;;7.40;99.90;;;;;;4841076;29;20041;-75
2023/01/13 06:57:29;;;;;;;5.53;2.58;;;7.40;99.90;;;;;;4841045;29;20034;-75
2023/01/13 06:59:55;;;;;;;13.20;2.45;;;7.40;99.90;;;;;;4855154;29;20149;-75
2023/01/13 07:02:21;;;;;;;5.95;2.97;;;7.40;99.90;;;;;;4820084;29;20042;-75
2023/01/13 07:04:47;;;;;;;7.25;3.88;;;7.40;99.90;;;;;;4857621;29;20037;-75
2023/01/13 07:07:13;;;;;;;12.35;5.00;;;7.50;99.90;;;;;;4833016;29;20034;-75
2023/01/13 07:09:39;;;;;;;7.90;3.55;;;7.50;99.90;;;;;;4856352;29;20038;-75
2023/01/13 07:12:05;;;;;;;11.93;3.33;;;7.40;99.90;;;;;;4855500;29;20041;-75
2023/01/13 07:17:23;;;;;;;9.13;4.07;;;7.30;99.90;;;;;;4855694;29;20065;-75
2023/01/13 07:19:50;;;;;;;10.23;2.70;;;7.30;99.90;;;;;;4852077;29;20065;-75
2023/01/13 07:22:16;;;;;;;5.88;2.40;;;7.30;99.90;;;;;;4861080;29;20914;-75
2023/01/13 07:24:42;;;;;;;4.63;2.83;;;7.20;99.90;;;;;;4857462;29;20034;-75
2023/01/13 07:27:08;;;;;;;7.07;4.88;;;7.30;99.90;;;;;;4857405;29;20041;-75
2023/01/13 07:29:34;;;;;;;13.50;3.75;;;7.30;99.90;;;;;;4840746;29;20038;-75
2023/01/13 07:32:00;;;;;;;13.10;3.05;;;7.30;99.90;;;;;;4839499;29;20931;-75
2023/01/13 07:34:25;;;;;;;6.63;4.45;;;7.30;99.90;;;;;;4822772;29;20034;-75
2023/01/13 07:36:51;;;;;;;21.23;6.65;;;7.30;99.90;;;;;;4856576;29;20056;-75
2023/01/13 07:39:17;;;;;;;13.80;3.70;;;7.40;99.90;;;;;;4833856;29;20045;-75
2023/01/13 07:44:27;;;;;;;15.13;4.18;;;7.40;99.90;;;;;;4841731;29;20097;-75
2023/01/13 07:46:53;;;;;;;13.27;4.07;;;7.40;99.90;;;;;;4835427;29;20067;-75
2023/01/13 07:49:19;;;;;;;10.52;3.17;;;7.40;99.90;;;;;;4855945;29;20070;-75
2023/01/13 07:51:45;;;;;;;25.70;5.30;;;7.50;99.90;;;;;;4856331;29;20034;-75
2023/01/13 07:54:11;;;;;;;12.30;4.32;;;7.50;99.90;;;;;;4856284;29;20384;-75
2023/01/13 07:56:37;;;;;;;9.98;2.78;;;7.40;99.90;;;;;;4838503;29;20042;-75
2023/01/13 07:59:02;;;;;;;7.22;3.97;;;7.40;99.90;;;;;;4853963;29;20167;-74
2023/01/13 08:01:30;;;;;;;16.00;4.88;;;7.40;99.90;;;;;;4838170;29;20023;-74
2023/01/13 08:03:58;;;;;;;5.32;2.70;;;7.40;99.90;;;;;;4837993;29;20041;-75
2023/01/13 08:06:25;;;;;;;16.88;5.07;;;7.50;99.90;;;;;;4854301;29;20054;-75
2023/01/13 08:08:51;;;;;;;9.40;3.80;;;7.60;99.90;;;;;;4839674;29;20022;-74
2023/01/13 08:11:17;;;;;;;20.33;4.65;;;7.60;99.90;;;;;;4856306;29;20089;-75
2023/01/13 08:13:43;;;;;;;4.75;2.75;;;7.70;99.90;;;;;;4856473;29;20049;-75
2023/01/13 08:16:12;;;;;;;9.15;4.50;;;7.90;99.90;;;;;;4833726;29;20029;-74
2023/01/13 08:18:38;;;;;;;6.15;4.70;;;8.00;99.90;;;;;;4856334;29;20065;-74
2023/01/13 08:21:07;;;;;;;6.28;3.15;;;8.30;99.90;;;;;;4824609;29;20042;-74
2023/01/13 08:23:32;;;;;;;5.97;2.55;;;8.40;99.90;;;;;;4824646;29;20034;-74
2023/01/13 08:26:01;;;;;;;11.00;3.83;;;8.40;99.90;;;;;;4839675;29;20161;-75
2023/01/13 08:28:27;;;;;;;13.10;3.92;;;8.40;99.90;;;;;;4824662;29;20091;-75
2023/01/13 08:30:54;;;;;;;8.98;3.90;;;8.50;99.90;;;;;;4839555;29;20041;-75
2023/01/13 08:33:20;;;;;;;16.90;4.45;;;8.40;99.90;;;;;;4839523;29;20101;-74
2023/01/13 08:35:47;;;;;;;7.35;3.35;;;8.60;99.90;;;;;;4855220;29;20049;-74
2023/01/13 08:38:12;;;;;;;11.07;4.80;;;8.80;99.90;;;;;;4850351;29;20507;-74
2023/01/13 08:40:39;;;;;;;4.65;2.42;;;8.80;99.90;;;;;;4831142;29;20035;-75
2023/01/13 08:43:05;;;;;;;15.95;5.05;;;8.90;99.90;;;;;;4857015;29;20057;-74
2023/01/13 08:45:31;;;;;;;19.63;4.82;;;8.90;99.90;;;;;;4830481;29;20483;-75
2023/01/13 08:47:58;;;;;;;18.27;3.83;;;9.20;99.90;;;;;;4861626;29;20021;-74
2023/01/13 08:50:23;;;;;;;22.38;5.53;;;10.00;99.90;;;;;;4857694;29;20033;-74
2023/01/13 08:52:49;;;;;;;14.70;5.20;;;10.60;99.90;;;;;;4842217;29;20151;-75
2023/01/13 08:55:15;;;;;;;12.90;4.18;;;10.70;99.90;;;;;;4857671;29;20117;-74
2023/01/13 08:57:41;;;;;;;15.80;3.75;;;10.30;99.90;;;;;;4874288;29;20026;-75
2023/01/13 09:00:08;;;;;;;8.50;2.78;;;10.50;99.90;;;;;;4874177;29;20034;-74
2023/01/13 09:02:34;;;;;;;8.90;3.97;;;10.20;99.90;;;;;;4857478;29;20058;-74
2023/01/13 09:05:02;;;;;;;15.25;4.47;;;10.30;99.90;;;;;;4863054;29;20038;-75
2023/01/13 09:07:29;;;;;;;10.15;4.68;;;10.10;99.90;;;;;;4853190;29;20077;-75
2023/01/13 09:09:55;;;;;;;7.22;3.15;;;9.90;99.90;;;;;;4842185;29;20027;-74
2023/01/13 09:15:07;;;;;;;11.30;4.07;;;11.30;99.90;;;;;;4853781;29;20388;-74
2023/01/13 09:17:33;;;;;;;11.43;3.90;;;11.40;99.90;;;;;;4839153;29;20025;-75
2023/01/13 09:19:59;;;;;;;8.90;3.75;;;11.00;99.90;;;;;;4853191;29;20034;-74
2023/01/13 09:22:26;;;;;;;12.73;4.60;;;11.30;99.90;;;;;;4839049;29;20050;-75
2023/01/13 09:24:53;;;;;;;11.02;4.18;;;10.90;99.90;;;;;;4839093;29;20057;-75
2023/01/13 09:27:19;;;;;;;17.92;5.93;;;10.20;99.90;;;;;;4822879;29;20046;-75
2023/01/13 09:29:44;;;;;;;14.25;5.60;;;10.90;99.90;;;;;;4841476;29;20030;-74
2023/01/13 09:32:12;;;;;;;13.43;5.15;;;11.90;99.90;;;;;;4855036;29;20037;-75
2023/01/13 09:37:22;;;;;;;9.52;3.38;;;10.90;99.90;;;;;;4820412;29;20041;-75
2023/01/13 09:39:48;;;;;;;9.00;3.83;;;10.30;99.90;;;;;;4820555;29;20030;-75
2023/01/13 09:45:22;;;;;;;9.38;5.15;;;10.20;99.90;;;;;;4854352;29;20105;-75
2023/01/13 09:48:11;;;;;;;4.03;3.47;;;10.20;99.90;;;;;;4854961;29;20034;-74
2023/01/13 09:50:45;;;;;;;15.25;4.78;;;11.20;99.90;;;;;;4829884;29;20034;-75
2023/01/13 09:53:18;;;;;;;12.88;4.35;;;12.90;99.90;;;;;;4836518;29;20042;-74
2023/01/13 09:55:44;;;;;;;11.18;4.40;;;12.90;99.90;;;;;;4836803;29;20051;-76
2023/01/13 09:58:16;;;;;;;10.48;3.75;;;12.30;99.90;;;;;;4822182;29;20079;-75
2023/01/13 10:00:59;;;;;;;12.27;4.13;;;11.70;99.90;;;;;;4820223;29;20041;-75
2023/01/13 10:03:31;;;;;;;17.40;4.95;;;11.60;99.90;;;;;;4836601;29;20095;-75
2023/01/13 10:06:05;;;;;;;15.00;4.53;;;11.10;99.90;;;;;;4823109;29;20030;-74
2023/01/13 10:08:36;;;;;;;18.00;5.05;;;10.80;99.90;;;;;;4854314;29;20063;-75
2023/01/13 10:13:59;;;;;;;11.80;3.60;;;10.20;99.90;;;;;;4854632;29;20051;-75
2023/01/13 10:16:41;;;;;;;9.15;4.70;;;10.10;99.90;;;;;;4838352;29;20018;-75
2023/01/13 10:19:29;;;;;;;4.57;2.42;;;10.10;99.90;;;;;;4838211;29;20034;-74
2023/01/13 10:22:07;;;;;;;14.30;4.95;;;9.90;99.90;;;;;;4840018;29;20030;-75
2023/01/13 10:24:54;;;;;;;11.95;3.63;;;9.90;99.90;;;;;;4838082;29;20048;-74
2023/01/13 10:27:31;;;;;;;14.05;3.67;;;9.90;99.90;;;;;;4838089;29;20041;-75
2023/01/13 10:29:57;;;;;;;14.13;4.43;;;9.90;99.90;;;;;;4854632;29;20067;-74
2023/01/13 10:32:23;;;;;;;16.70;5.38;;;9.70;99.90;;;;;;4837907;29;20050;-75
2023/01/13 10:34:50;;;;;;;20.48;4.18;;;9.70;99.90;;;;;;4837855;29;20137;-75
2023/01/13 10:37:34;;;;;;;12.85;5.28;;;9.60;99.90;;;;;;4842118;29;20034;-75
2023/01/13 10:40:01;;;;;;;18.02;5.00;;;9.60;99.90;;;;;;4839526;29;20095;-75
2023/01/13 10:42:27;;;;;;;21.92;6.18;;;9.70;99.90;;;;;;4835174;29;20049;-75
2023/01/13 10:44:58;;;;;;;10.00;5.45;;;9.70;99.90;;;;;;4846022;29;20037;-74
2023/01/13 10:47:28;;;;;;;12.02;4.97;;;9.80;99.90;;;;;;4853978;29;20044;-75
2023/01/13 10:50:07;;;;;;;12.00;6.22;;;9.90;99.90;;;;;;4826174;29;20091;-75
2023/01/13 10:52:38;;;;;;;6.10;2.90;;;9.90;99.90;;;;;;4834644;29;20098;-74
2023/01/13 10:55:25;;;;;;;7.97;3.80;;;9.90;99.90;;;;;;4854447;29;20355;-75
2023/01/13 10:57:51;;;;;;;14.70;4.00;;;9.80;99.90;;;;;;4854374;29;20452;-74
2023/01/13 11:00:29;;;;;;;29.88;5.97;;;9.70;99.90;;;;;;4843587;29;20034;-75
2023/01/13 11:03:16;;;;;;;14.82;4.35;;;9.80;99.90;;;;;;4841920;29;20045;-74
2023/01/13 11:05:56;;;;;;;16.98;6.35;;;10.00;99.90;;;;;;4847860;29;20049;-75
2023/01/13 11:08:26;;;;;;;14.32;4.78;;;10.10;99.90;;;;;;4853833;29;20042;-74
2023/01/13 11:10:55;;;;;;;13.07;5.10;;;10.10;99.90;;;;;;4833690;29;20046;-75
2023/01/13 11:13:29;;;;;;;8.55;3.42;;;10.00;99.90;;;;;;4854620;29;20299;-75
2023/01/13 11:16:04;;;;;;;4.88;3.88;;;10.00;99.90;;;;;;4832993;29;20042;-75
2023/01/13 11:19:01;;;;;;;8.70;3.75;;;9.90;99.90;;;;;;4839373;29;20117;-75
2023/01/13 11:21:41;;;;;;;19.02;4.85;;;9.80;99.90;;;;;;4858446;29;20034;-74
2023/01/13 11:24:14;;;;;;;;;;;9.80;99.90;;;;;;4832990;29;20062;-75
2023/01/13 11:27:20;;;;;;;10.65;2.47;;;9.50;99.90;;;;;;4839277;29;19920;-75
2023/01/13 11:30:09;;;;;;;17.85;5.20;;;9.40;99.90;;;;;;4768370;30;20071;-75
2023/01/13 11:32:42;;;;;;;11.63;3.75;;;9.30;99.90;;;;;;4839481;29;20052;-75
2023/01/13 11:35:20;;;;;;;23.50;5.35;;;9.20;99.90;;;;;;4857835;29;20042;-75
2023/01/13 11:38:03;;;;;;;10.77;4.00;;;9.20;99.90;;;;;;4840854;29;20026;-75
2023/01/13 11:40:36;;;;;;;11.73;3.10;;;9.20;99.90;;;;;;4857593;29;20026;-75
2023/01/13 11:43:26;;;;;;;8.20;3.95;;;9.20;99.90;;;;;;4839093;29;20032;-76
2023/01/13 11:45:57;;;;;;;9.02;2.58;;;9.20;99.90;;;;;;4845248;29;20076;-75
2023/01/13 11:48:30;;;;;;;8.82;3.88;;;9.10;99.90;;;;;;4839007;29;20065;-75
2023/01/13 11:50:56;;;;;;;6.63;3.15;;;9.00;99.90;;;;;;4838780;29;20034;-75
2023/01/13 11:53:52;;;;;;;14.20;4.70;;;8.90;99.90;;;;;;4847430;29;20033;-75
2023/01/13 11:56:45;;;;;;;13.77;4.47;;;8.80;99.90;;;;;;4840649;29;20038;-76
2023/01/13 11:59:20;;;;;;;13.60;5.55;;;8.90;99.90;;;;;;4825785;29;20033;-75
2023/01/13 12:02:17;;;;;;;13.98;3.38;;;8.90;99.90;;;;;;4857281;29;20049;-75
2023/01/13 12:04:57;;;;;;;11.85;4.97;;;9.00;99.90;;;;;;4838950;29;20059;-75
2023/01/13 12:07:54;;;;;;;11.52;3.85;;;9.00;99.90;;;;;;4832963;29;20046;-75
2023/01/13 12:10:33;;;;;;;23.67;5.90;;;9.00;99.90;;;;;;4857002;29;20038;-75
2023/01/13 12:13:22;;;;;;;16.40;4.53;;;9.10;99.90;;;;;;4856331;29;20094;-75
2023/01/13 12:16:15;;;;;;;13.40;4.18;;;9.10;99.90;;;;;;4856802;29;20041;-76
2023/01/13 12:18:56;;;;;;;18.00;4.03;;;9.10;99.90;;;;;;4838411;29;20031;-75
2023/01/13 12:21:33;;;;;;;13.82;4.20;;;9.10;99.90;;;;;;4846560;29;20048;-75
2023/01/13 12:24:05;;;;;;;7.50;3.40;;;9.00;99.90;;;;;;4856388;29;20029;-76
2023/01/13 12:26:36;;;;;;;18.42;4.60;;;9.00;99.90;;;;;;4837850;29;20476;-75
2023/01/13 12:29:17;;;;;;;9.07;3.47;;;9.10;99.90;;;;;;4838381;29;20132;-75
2023/01/13 12:31:48;;;;;;;8.70;4.10;;;9.10;99.90;;;;;;4838418;29;20138;-75
2023/01/13 12:34:27;;;;;;;11.25;3.42;;;9.20;99.90;;;;;;4838118;29;20477;-76
2023/01/13 12:37:20;;;;;;;10.18;3.65;;;9.20;99.90;;;;;;4826420;29;20101;-75
2023/01/13 12:39:58;;;;;;;10.82;4.82;;;9.30;99.90;;;;;;4856496;29;20062;-75
2023/01/13 12:45:38;;;;;;;4.57;3.15;;;9.40;99.90;;;;;;4856319;29;20041;-76
2023/01/13 12:48:04;;;;;;;7.70;3.47;;;9.40;99.90;;;;;;4842454;29;20041;-75
2023/01/13 12:50:30;;;;;;;8.10;3.67;;;9.40;99.90;;;;;;4838010;29;20429;-75
2023/01/13 12:52:58;;;;;;;6.40;3.55;;;9.50;99.90;;;;;;4837889;29;20050;-76
2023/01/13 12:55:26;;;;;;;7.32;4.53;;;9.50;99.90;;;;;;4837879;29;20051;-75
2023/01/13 12:57:58;;;;;;;6.28;2.83;;;9.50;99.90;;;;;;4842695;29;20030;-75
2023/01/13 13:00:31;;;;;;;7.65;3.47;;;9.40;99.90;;;;;;4855577;29;20097;-75
2023/01/13 13:03:15;;;;;;;7.30;2.70;;;9.50;99.90;;;;;;4844815;29;20050;-75
2023/01/13 13:05:56;;;;;;;7.63;2.67;;;9.40;99.90;;;;;;4821469;29;20098;-75
2023/01/13 13:08:46;;;;;;;9.80;4.30;;;9.50;99.90;;;;;;4838315;29;20045;-75
2023/01/13 13:13:16;;;;;;;9.30;2.90;;;9.60;99.90;;;;;;4823233;29;20033;-76
2023/01/13 13:14:03;;;;;;;5.53;3.08;;;9.60;99.90;;;;;;4841647;29;20038;-75
2023/01/13 13:16:29;;;;;;;10.50;4.32;;;9.60;99.90;;;;;;4851419;29;20023;-75
2023/01/13 13:19:16;;;;;;;3.47;2.28;;;9.60;99.90;;;;;;4837845;29;20056;-76
2023/01/13 13:22:10;;;;;;;6.82;2.83;;;9.50;99.90;;;;;;4837542;29;20034;-76
2023/01/13 13:24:36;;;;;;;5.93;3.28;;;9.40;99.90;;;;;;4837748;29;20038;-76
2023/01/13 13:27:26;;;;;;;5.50;2.58;;;9.40;99.90;;;;;;4821866;29;20106;-75
2023/01/13 13:30:12;;;;;;;9.02;3.42;;;9.40;99.90;;;;;;4843492;29;20098;-75
2023/01/13 13:33:01;;;;;;;5.40;3.00;;;9.30;99.90;;;;;;4837817;29;20034;-75
2023/01/13 13:36:10;;;;;;;9.52;3.60;;;9.30;99.90;;;;;;4837345;29;20042;-75
2023/01/13 13:47:15;;;;;;;8.15;3.00;;;9.20;99.90;;;;;;4837637;29;20038;-76
2023/01/13 13:49:45;;;;;;;7.07;3.33;;;9.20;99.90;;;;;;4837133;29;20030;-75
2023/01/13 13:52:14;;;;;;;;;;;9.20;99.90;;;;;;4837648;29;20042;-75
2023/01/13 13:54:43;;;;;;;5.38;3.55;;;9.30;99.90;;;;;;4837397;29;19983;-75
2023/01/13 13:57:18;;;;;;;5.53;4.00;;;9.30;99.90;;;;;;4838832;29;20078;-75
2023/01/13 13:59:44;;;;;;;7.35;2.53;;;9.30;99.90;;;;;;4849765;29;20033;-75
2023/01/13 14:02:18;;;;;;;10.95;3.25;;;9.30;99.90;;;;;;4851161;29;20504;-76
2023/01/13 14:04:44;;;;;;;9.32;3.08;;;9.20;99.90;;;;;;4841486;29;20038;-75
2023/01/13 14:07:19;;;;;;;4.05;2.58;;;9.10;99.90;;;;;;4838543;29;20504;-75
2023/01/13 14:09:49;;;;;;;6.47;4.70;;;9.10;99.90;;;;;;4836591;29;20034;-75
2023/01/13 14:12:18;;;;;;;7.45;3.53;;;9.10;99.90;;;;;;4837381;29;20492;-75